Time;durP1;ratioP1;P1;durP2;ratioP2;P2;SDS_P1;SDS_P2;PMS_P1;PMS_P2;Temp;Humidity;BMP_temperature;BMP_pressure;BME280_temperature;BME280_humidity;BME280_pressure;Samples;Min_cycle;Max_cycle;Signal;HPM_P1;HPM_P2
2022/07/04 00:01:35;;;;;;;9.80;4.60;;;;;;;16.13;99.99;100034.48;104905;1271;59794;-65
2022/07/04 00:04:24;;;;;;;9.50;4.70;;;;;;;16.11;100.00;100038.07;104925;1271;62266;-63
2022/07/04 00:07:12;;;;;;;9.00;5.00;;;;;;;16.09;100.00;100040.86;104835;1272;73960;-65
2022/07/04 00:10:00;;;;;;;9.30;4.90;;;;;;;16.06;100.00;100033.80;104920;1271;67524;-65
2022/07/04 00:12:48;;;;;;;9.20;4.40;;;;;;;16.03;99.95;100038.04;105132;1271;73781;-64
2022/07/04 00:15:37;;;;;;;10.50;4.60;;;;;;;16.02;100.00;100036.89;104862;1271;59784;-65
2022/07/04 00:18:25;;;;;;;10.40;4.90;;;;;;;15.97;99.90;100024.66;104720;1274;60326;-63
2022/07/04 00:21:12;;;;;;;10.10;4.50;;;;;;;15.97;99.82;100029.42;104901;1271;74716;-65
2022/07/04 00:24:01;;;;;;;8.70;4.40;;;;;;;15.93;99.83;100024.13;104938;1271;66918;-66
2022/07/04 00:26:49;;;;;;;12.10;4.80;;;;;;;15.91;99.75;100023.84;104893;1271;74515;-66
2022/07/04 00:29:37;;;;;;;10.60;4.70;;;;;;;15.89;99.70;100024.80;105098;1274;59668;-65
2022/07/04 00:32:24;;;;;;;8.80;4.40;;;;;;;15.85;99.52;100017.31;104968;1271;61115;-65
2022/07/04 00:35:12;;;;;;;9.30;5.50;;;;;;;15.81;99.33;100014.66;105003;1272;74083;-65
2022/07/04 00:38:00;;;;;;;9.20;4.90;;;;;;;15.76;99.39;100016.70;104904;1272;68940;-65
2022/07/04 00:40:48;;;;;;;10.40;5.00;;;;;;;15.72;99.68;100014.43;104949;1271;73415;-65
2022/07/04 00:43:36;;;;;;;9.70;5.00;;;;;;;15.70;99.78;100012.29;104862;1271;60303;-64
2022/07/04 00:46:47;;;;;;;10.40;4.70;;;;;;;15.67;100.00;100016.89;104753;1273;60376;-64
2022/07/04 00:49:35;;;;;;;9.00;4.60;;;;;;;15.65;100.00;100013.55;104957;1271;74848;-65
2022/07/04 00:52:23;;;;;;;8.10;4.00;;;;;;;15.62;100.00;100011.48;104815;1274;68609;-65
2022/07/04 00:55:11;;;;;;;10.70;4.80;;;;;;;15.60;100.00;100007.55;104976;1271;73569;-65
2022/07/04 00:57:59;;;;;;;11.30;4.80;;;;;;;15.60;100.00;100004.19;104897;1274;59915;-65
2022/07/04 01:00:48;;;;;;;10.50;5.80;;;;;;;15.56;100.00;99998.45;105189;1271;61935;-64
2022/07/04 01:03:36;;;;;;;11.00;6.00;;;;;;;15.53;100.00;99997.70;104963;1271;73611;-66
2022/07/04 01:06:24;;;;;;;11.90;5.80;;;;;;;15.49;100.00;99994.50;105105;1271;68505;-69
2022/07/04 01:09:13;;;;;;;11.10;5.50;;;;;;;15.48;100.00;99988.58;104951;1271;74069;-67
2022/07/04 01:12:00;;;;;;;10.10;4.90;;;;;;;15.47;100.00;99989.89;104787;1274;59787;-69
2022/07/04 01:14:48;;;;;;;10.50;5.10;;;;;;;15.48;100.00;99991.44;105192;1271;60660;-68
2022/07/04 01:17:36;;;;;;;10.30;4.90;;;;;;;15.46;100.00;99993.52;104872;1274;73689;-69
2022/07/04 01:20:24;;;;;;;9.60;5.40;;;;;;;15.45;100.00;99996.57;104815;1273;68417;-68
2022/07/04 01:23:12;;;;;;;11.60;5.90;;;;;;;15.43;100.00;99992.10;105525;1271;74235;-66
2022/07/04 01:26:02;;;;;;;9.80;5.80;;;;;;;15.42;100.00;99992.05;104950;1272;59738;-65
2022/07/04 01:28:50;;;;;;;11.00;5.70;;;;;;;15.42;100.00;99990.17;104826;1274;59650;-66
2022/07/04 01:31:37;;;;;;;11.10;5.30;;;;;;;15.42;100.00;99989.64;105007;1271;74740;-64
2022/07/04 01:34:25;;;;;;;10.90;5.70;;;;;;;15.42;100.00;99992.68;104844;1271;67585;-65
2022/07/04 01:37:14;;;;;;;10.90;5.60;;;;;;;15.43;100.00;99991.03;104814;1271;71413;-65
2022/07/04 01:40:01;;;;;;;10.40;5.70;;;;;;;15.44;100.00;99993.11;105209;1271;61387;-67
2022/07/04 01:42:49;;;;;;;9.90;5.40;;;;;;;15.44;100.00;99991.48;105076;1271;61207;-67
2022/07/04 01:45:37;;;;;;;10.20;5.30;;;;;;;15.43;100.00;99993.00;104749;1273;73945;-71
2022/07/04 01:48:25;;;;;;;8.60;5.00;;;;;;;15.43;100.00;99992.66;105125;1271;69813;-66
2022/07/04 01:51:13;;;;;;;11.30;5.40;;;;;;;15.42;100.00;99990.94;104857;1271;73775;-67
2022/07/04 01:54:01;;;;;;;11.20;5.80;;;;;;;15.41;100.00;99993.55;104865;1268;59659;-66
2022/07/04 01:56:49;;;;;;;12.20;5.90;;;;;;;15.41;100.00;99994.61;105077;1271;60000;-68
2022/07/04 02:02:44;;;;;;;11.60;6.80;;;;;;;15.41;100.00;99996.80;104943;1271;68333;-65
2022/07/04 02:05:33;;;;;;;10.70;6.00;;;;;;;15.41;100.00;99997.84;104895;1271;73440;-65
2022/07/04 02:08:21;;;;;;;10.20;6.00;;;;;;;15.41;100.00;100001.91;104894;1271;61302;-68
2022/07/04 02:11:09;;;;;;;10.70;7.00;;;;;;;15.40;100.00;99991.63;105073;1271;61350;-66
2022/07/04 02:13:57;;;;;;;11.70;5.70;;;;;;;15.41;100.00;99988.92;104849;1271;74483;-65
2022/07/04 02:16:45;;;;;;;10.50;6.30;;;;;;;15.42;100.00;99993.09;105081;1271;69365;-68
2022/07/04 02:19:33;;;;;;;10.60;5.80;;;;;;;15.41;100.00;99994.95;104869;1271;74499;-65
2022/07/04 02:22:21;;;;;;;11.40;5.70;;;;;;;15.41;100.00;99994.56;104779;1272;59781;-62
2022/07/04 02:25:10;;;;;;;11.20;5.40;;;;;;;15.41;100.00;99996.56;104728;1271;59797;-64
2022/07/04 02:27:58;;;;;;;10.40;5.80;;;;;;;15.41;100.00;99994.59;105092;1271;74672;-65
2022/07/04 02:30:46;;;;;;;12.50;5.60;;;;;;;15.41;100.00;99994.79;105023;1271;66653;-66
2022/07/04 02:33:34;;;;;;;9.80;5.20;;;;;;;15.43;100.00;99995.35;104906;1271;73607;-66
2022/07/04 02:36:22;;;;;;;9.40;5.20;;;;;;;15.44;100.00;99990.20;104795;1271;59663;-64
2022/07/04 02:39:09;;;;;;;13.10;5.10;;;;;;;15.46;100.00;99991.39;105162;1271;60890;-63
2022/07/04 02:41:58;;;;;;;10.20;4.50;;;;;;;15.51;100.00;99985.06;105050;1271;73626;-65
2022/07/04 02:44:46;;;;;;;9.30;4.70;;;;;;;15.56;100.00;99985.45;104861;1271;69535;-64
2022/07/04 02:47:34;;;;;;;11.10;5.40;;;;;;;15.63;100.00;99984.23;104962;1271;73174;-64
2022/07/04 02:50:22;;;;;;;8.90;4.70;;;;;;;15.67;100.00;99987.39;104881;1271;59742;-64
2022/07/04 02:53:11;;;;;;;11.30;5.20;;;;;;;15.71;100.00;99985.72;104799;1271;59599;-65
2022/07/04 02:55:58;;;;;;;9.40;5.20;;;;;;;15.74;100.00;99980.97;104880;1271;74592;-66
2022/07/04 02:58:46;;;;;;;11.30;5.00;;;;;;;15.77;100.00;99980.83;105161;1271;68014;-65
2022/07/04 03:01:35;;;;;;;9.60;4.30;;;;;;;15.80;100.00;99981.80;104965;1271;70735;-64
2022/07/04 03:04:23;;;;;;;8.30;4.20;;;;;;;15.81;100.00;99988.88;104928;1271;59578;-64
2022/07/04 03:07:11;;;;;;;8.50;4.10;;;;;;;15.81;100.00;99990.26;105146;1271;59624;-65
2022/07/04 03:09:59;;;;;;;8.40;3.70;;;;;;;15.81;100.00;99986.69;104824;1274;71225;-64
2022/07/04 03:12:47;;;;;;;8.40;4.30;;;;;;;15.81;100.00;99984.72;104979;1271;68619;-63
2022/07/04 03:15:35;;;;;;;8.20;4.30;;;;;;;15.83;100.00;99989.58;105015;1271;74033;-67
2022/07/04 03:18:24;;;;;;;8.90;4.00;;;;;;;15.84;100.00;99988.98;104648;1272;60139;-66
2022/07/04 03:21:12;;;;;;;9.10;3.90;;;;;;;15.86;100.00;99989.52;104939;1271;60132;-67
2022/07/04 03:24:00;;;;;;;7.30;3.70;;;;;;;15.87;100.00;99987.18;105179;1271;73719;-66
2022/07/04 03:26:47;;;;;;;7.70;3.60;;;;;;;15.91;100.00;99983.42;104795;1271;68694;-65
2022/07/04 03:29:35;;;;;;;8.60;3.40;;;;;;;15.96;99.94;99985.23;105019;1271;73345;-66
2022/07/04 03:32:23;;;;;;;10.80;4.20;;;;;;;16.01;99.05;99988.42;104746;1271;59694;-65
2022/07/04 03:35:11;;;;;;;10.00;4.60;;;;;;;16.09;98.52;99989.33;104777;1271;61407;-69
2022/07/04 03:37:59;;;;;;;10.10;3.70;;;;;;;16.14;97.68;99990.04;104854;1271;73533;-68
2022/07/04 03:40:47;;;;;;;8.50;3.40;;;;;;;16.21;96.98;99988.94;104765;1271;66707;-63
2022/07/04 03:43:36;;;;;;;6.50;3.00;;;;;;;16.30;96.49;99992.48;104771;1271;72385;-66
2022/07/04 03:46:24;;;;;;;6.80;3.00;;;;;;;16.39;95.40;99990.16;104782;1271;59795;-66
2022/07/04 03:49:12;;;;;;;7.40;2.90;;;;;;;16.47;94.31;99992.55;104892;1271;59648;-65
2022/07/04 03:52:01;;;;;;;7.30;2.60;;;;;;;16.56;93.12;99990.75;104885;1271;74778;-66
2022/07/04 03:54:49;;;;;;;6.30;3.00;;;;;;;16.66;91.68;99991.84;104768;1271;67519;-67
2022/07/04 03:57:36;;;;;;;7.30;2.40;;;;;;;16.77;90.36;99993.00;104945;1271;71305;-66
2022/07/04 04:00:24;;;;;;;8.40;2.60;;;;;;;16.89;90.38;99992.19;104956;1271;59768;-68
2022/07/04 04:06:19;;;;;;;7.60;2.60;;;;;;;17.05;89.40;99991.59;105140;1271;73727;-67
2022/07/04 04:09:12;;;;;;;8.60;2.60;;;;;;;17.09;88.50;99985.08;104917;1271;67456;-66
2022/07/04 04:12:00;;;;;;;7.20;2.50;;;;;;;17.12;87.80;99979.81;104807;1272;73400;-68
2022/07/04 04:14:48;;;;;;;9.80;2.50;;;;;;;17.14;87.12;99978.40;104840;1271;60413;-66
2022/07/04 04:17:36;;;;;;;6.50;2.10;;;;;;;17.16;86.75;99979.29;104909;1271;59881;-66
2022/07/04 04:20:24;;;;;;;6.50;2.20;;;;;;;17.14;85.28;99977.36;104866;1271;72631;-65
2022/07/04 04:23:12;;;;;;;7.40;2.50;;;;;;;17.11;84.93;99977.16;104968;1271;69557;-65
2022/07/04 04:25:59;;;;;;;6.70;2.20;;;;;;;17.07;85.01;99980.04;104857;1271;74388;-66
2022/07/04 04:28:47;;;;;;;6.70;2.40;;;;;;;17.05;85.06;99981.34;104767;1271;62066;-66
2022/07/04 04:31:35;;;;;;;6.60;2.20;;;;;;;17.07;84.61;99980.42;104862;1270;61289;-66
2022/07/04 04:34:23;;;;;;;6.90;2.50;;;;;;;17.11;84.55;99979.48;104817;1271;75001;-67
2022/07/04 04:37:11;;;;;;;5.70;2.10;;;;;;;17.20;83.82;99984.20;105047;1271;69624;-66
2022/07/04 04:39:58;;;;;;;6.20;2.40;;;;;;;17.33;83.04;99983.05;104830;1271;74416;-67
2022/07/04 04:42:46;;;;;;;7.50;2.20;;;;;;;17.63;81.13;99978.52;105051;1271;60241;-69
2022/07/04 04:45:34;;;;;;;6.30;2.40;;;;;;;18.02;79.74;99979.50;104860;1271;60519;-66
2022/07/04 04:48:22;;;;;;;6.50;2.40;;;;;;;18.47;78.75;99976.15;104803;1271;74646;-68
2022/07/04 04:51:10;;;;;;;6.80;2.00;;;;;;;19.03;76.65;99971.27;104867;1271;69335;-68
2022/07/04 04:53:58;;;;;;;5.90;2.10;;;;;;;19.61;72.52;99968.48;104972;1271;74657;-69
2022/07/04 04:56:46;;;;;;;7.60;2.00;;;;;;;20.19;70.28;99965.08;104773;1271;59692;-68
2022/07/04 04:59:35;;;;;;;8.70;2.00;;;;;;;20.79;65.71;99962.56;105033;1270;60246;-69
2022/07/04 05:02:22;;;;;;;6.20;1.70;;;;;;;21.34;62.64;99959.23;104973;1271;74597;-67
2022/07/04 05:05:10;;;;;;;6.30;1.60;;;;;;;21.99;62.04;99957.34;104831;1271;65541;-68
2022/07/04 05:07:58;;;;;;;6.90;1.90;;;;;;;22.74;58.82;99957.16;104589;1271;74213;-68
2022/07/04 05:10:46;;;;;;;6.30;1.70;;;;;;;23.25;55.56;99957.20;104861;1271;59666;-71
2022/07/04 05:13:34;;;;;;;5.80;1.70;;;;;;;23.03;55.36;99956.77;105486;1271;60524;-73
2022/07/04 05:16:22;;;;;;;7.00;1.70;;;;;;;22.78;55.39;99955.76;105098;1271;74605;-73
2022/07/04 05:19:10;;;;;;;7.10;1.90;;;;;;;22.40;56.08;99960.11;104957;1271;66893;-71
2022/07/04 05:22:00;;;;;;;7.70;1.60;;;;;;;22.03;57.41;99957.05;105282;1270;331897;-70
2022/07/04 05:24:48;;;;;;;8.30;1.90;;;;;;;21.79;58.66;99950.23;104938;1274;59695;-71
2022/07/04 05:27:37;;;;;;;9.00;2.20;;;;;;;21.64;60.11;99950.18;104897;1271;61116;-71
2022/07/04 05:30:25;;;;;;;11.80;2.10;;;;;;;22.16;60.05;99952.35;105072;1271;74818;-71
2022/07/04 05:33:15;;;;;;;8.20;1.90;;;;;;;22.98;57.38;99947.41;105206;1271;68540;-69
2022/07/04 05:36:03;;;;;;;13.40;2.30;;;;;;;23.50;56.13;99951.73;105049;1271;73148;-72
2022/07/04 05:38:50;;;;;;;8.20;2.10;;;;;;;24.19;54.42;99945.94;104872;1271;59691;-72
2022/07/04 05:41:38;;;;;;;7.20;2.50;;;;;;;24.89;52.54;99942.32;104762;1271;59538;-72
2022/07/04 05:44:28;;;;;;;10.10;2.10;;;;;;;25.57;49.17;99936.66;105070;1271;73037;-70
2022/07/04 05:47:16;;;;;;;8.50;1.80;;;;;;;26.19;48.04;99940.51;105339;1271;69459;-72
2022/07/04 05:50:07;;;;;;;14.10;2.20;;;;;;;26.84;46.68;99937.86;105099;1271;72767;-72
2022/07/04 05:52:56;;;;;;;8.30;2.00;;;;;;;27.49;44.79;99932.38;105183;1271;59651;-74
2022/07/04 05:55:44;;;;;;;9.00;2.00;;;;;;;27.82;42.88;99931.59;105175;1271;59512;-72
2022/07/04 05:58:32;;;;;;;7.10;1.50;;;;;;;27.99;42.06;99929.64;105162;1271;74625;-70
2022/07/04 06:01:20;;;;;;;9.40;2.20;;;;;;;27.36;42.36;99925.95;105015;1271;66831;-70
2022/07/04 06:04:08;;;;;;;9.40;2.20;;;;;;;27.57;42.38;99925.17;105098;1271;73278;-72
2022/07/04 06:06:57;;;;;;;8.40;1.80;;;;;;;28.02;41.49;99924.50;105322;1271;59787;-74
2022/07/04 06:09:45;;;;;;;7.50;2.00;;;;;;;29.08;40.20;99924.31;105351;1271;59566;-75
2022/07/04 06:12:35;;;;;;;9.70;2.10;;;;;;;30.13;38.38;99922.68;105360;1271;71713;-73
2022/07/04 06:15:23;;;;;;;10.60;2.10;;;;;;;31.21;35.68;99922.98;104974;1274;68742;-74
2022/07/04 06:18:14;;;;;;;7.20;1.50;;;;;;;32.19;34.05;99922.58;105100;1271;73331;-75
2022/07/04 06:21:02;;;;;;;7.70;1.70;;;;;;;33.00;31.86;99916.65;105434;1271;59659;-74
2022/07/04 06:23:50;;;;;;;8.10;1.60;;;;;;;33.44;30.66;99910.19;105046;1271;59758;-72
2022/07/04 06:26:38;;;;;;;6.80;1.50;;;;;;;33.91;30.18;99910.55;105144;1271;71950;-72
2022/07/04 06:29:27;;;;;;;8.50;1.60;;;;;;;34.58;29.02;99910.05;105111;1271;68052;-68
2022/07/04 06:32:15;;;;;;;6.60;1.40;;;;;;;35.12;27.71;99916.40;105023;1271;70555;-70
2022/07/04 06:38:18;;;;;;;5.60;1.50;;;;;;;35.93;25.70;99917.70;105083;1271;60452;-71
2022/07/04 06:41:06;;;;;;;4.80;1.10;;;;;;;36.11;25.35;99913.98;105223;1271;73537;-71
2022/07/04 06:43:54;;;;;;;6.60;1.10;;;;;;;36.22;25.45;99907.39;105017;1271;69937;-72
2022/07/04 06:46:44;;;;;;;5.40;1.10;;;;;;;36.24;25.44;99913.19;105077;1271;71789;-75
2022/07/04 06:49:32;;;;;;;7.20;1.20;;;;;;;36.29;25.63;99910.02;105331;1271;59614;-73
2022/07/04 06:52:19;;;;;;;5.70;1.10;;;;;;;36.61;25.30;99907.02;105135;1271;59739;-72
2022/07/04 06:55:08;;;;;;;5.30;1.30;;;;;;;36.86;24.70;99902.45;105176;1271;73397;-72
2022/07/04 06:57:56;;;;;;;6.40;1.20;;;;;;;37.03;24.96;99899.59;105488;1271;65824;-75
2022/07/04 07:00:44;;;;;;;6.00;1.10;;;;;;;36.35;24.86;99896.52;105355;1271;72774;-71
2022/07/04 07:03:33;;;;;;;6.20;1.30;;;;;;;34.99;26.17;99895.17;104734;1271;59687;-72
2022/07/04 07:06:23;;;;;;;6.20;1.20;;;;;;;34.60;26.63;99895.34;105317;1274;60364;-70
2022/07/04 07:09:11;;;;;;;7.00;1.10;;;;;;;35.39;25.65;99900.61;105064;1271;72051;-70
2022/07/04 07:12:00;;;;;;;7.10;1.30;;;;;;;36.23;25.11;99902.00;105130;1271;68522;-73
2022/07/04 07:14:49;;;;;;;5.50;1.00;;;;;;;36.92;23.61;99901.45;105126;1271;72969;-71
2022/07/04 07:17:37;;;;;;;4.90;1.10;;;;;;;36.76;24.28;99901.64;105255;1271;59736;-71
2022/07/04 07:20:26;;;;;;;6.30;1.20;;;;;;;36.96;23.91;99894.86;105127;1272;60276;-71
2022/07/04 07:23:17;;;;;;;4.90;0.90;;;;;;;36.62;24.34;99888.34;105245;1271;73178;-72
2022/07/04 07:26:05;;;;;;;7.20;1.10;;;;;;;35.21;25.89;99883.96;104976;1271;69600;-72
2022/07/04 07:28:53;;;;;;;5.10;1.10;;;;;;;33.68;27.57;99888.30;104959;1271;72357;-73
2022/07/04 07:31:41;;;;;;;5.30;1.10;;;;;;;31.98;29.85;99889.80;104862;1274;59752;-72
2022/07/04 07:34:29;;;;;;;6.00;1.20;;;;;;;30.43;31.46;99895.57;104836;1274;61079;-72
2022/07/04 07:37:21;;;;;;;6.40;1.40;;;;;;;29.06;33.62;99912.21;105087;1274;72979;-72
2022/07/04 07:40:10;;;;;;;7.70;1.50;;;;;;;28.07;35.93;99927.48;105085;1274;68086;-72
2022/07/04 07:43:01;;;;;;;8.00;1.70;;;;;;;27.22;37.02;99924.41;104856;1274;71250;-70
2022/07/04 07:45:48;;;;;;;6.80;1.50;;;;;;;26.39;38.58;99929.48;104560;1274;59759;-70
2022/07/04 07:48:36;;;;;;;8.00;1.70;;;;;;;25.86;39.80;99919.16;104683;1275;62011;-70
2022/07/04 07:51:25;;;;;;;8.90;2.30;;;;;;;25.23;41.26;99916.59;104890;1274;70667;-71
2022/07/04 07:54:16;;;;;;;8.20;2.00;;;;;;;24.66;43.28;99922.53;104834;1274;68323;-70
2022/07/04 07:57:14;;;;;;;8.60;2.10;;;;;;;24.05;45.06;99916.02;104706;1274;74117;-71
2022/07/04 08:00:05;;;;;;;6.20;2.00;;;;;;;23.54;46.40;99920.91;104569;1274;59630;-70
2022/07/04 08:06:05;;;;;;;7.50;2.20;;;;;;;22.84;48.79;99929.70;105216;1271;74293;-70
2022/07/04 08:08:54;;;;;;;7.60;2.20;;;;;;;22.66;50.00;99929.10;105100;1271;69365;-72
2022/07/04 08:11:42;;;;;;;10.40;2.40;;;;;;;22.46;51.28;99930.95;104879;1271;73621;-71
2022/07/04 08:14:31;;;;;;;8.10;2.20;;;;;;;22.34;52.40;99933.52;104757;1274;59659;-70
2022/07/04 08:17:19;;;;;;;9.80;2.40;;;;;;;22.20;52.91;99909.59;104881;1271;59630;-69
2022/07/04 08:20:09;;;;;;;7.60;2.80;;;;;;;22.13;53.05;99884.16;105061;1271;73459;-69
2022/07/04 08:22:57;;;;;;;7.30;2.80;;;;;;;21.96;53.88;99888.69;105398;1271;67908;-70
2022/07/04 08:25:45;;;;;;;9.10;2.70;;;;;;;21.69;55.45;99918.27;104931;1272;74208;-70
2022/07/04 08:28:33;;;;;;;7.70;2.50;;;;;;;21.43;56.42;99929.02;104929;1271;59663;-70
2022/07/04 08:31:21;;;;;;;9.00;2.80;;;;;;;21.26;57.29;99918.39;105033;1271;59624;-70
2022/07/04 08:34:29;;;;;;;9.20;3.30;;;;;;;21.04;58.14;99906.69;104776;1271;73744;-70
2022/07/04 08:37:18;;;;;;;13.40;3.00;;;;;;;20.89;58.84;99903.08;105232;1271;67249;-72
2022/07/04 08:40:07;;;;;;;8.00;3.00;;;;;;;20.74;59.30;99906.09;104643;1271;72936;-70
2022/07/04 08:42:56;;;;;;;9.30;2.50;;;;;;;20.56;59.91;99908.54;104794;1271;60227;-72
2022/07/04 08:45:48;;;;;;;11.40;3.40;;;;;;;20.42;60.63;99918.55;105203;1271;60248;-73
2022/07/04 08:48:59;;;;;;;9.40;3.20;;;;;;;20.30;61.00;99926.41;104917;1271;73623;-70
2022/07/04 08:52:05;;;;;;;11.00;3.10;;;;;;;20.21;61.37;99922.63;105073;1271;67289;-69
2022/07/04 09:01:16;;;;;;;10.70;2.60;;;;;;;20.07;61.08;99922.02;105082;1274;60611;-74
2022/07/04 09:04:05;;;;;;;7.20;2.60;;;;;;;20.04;60.27;99910.36;105012;1271;73381;-76
2022/07/04 09:06:53;;;;;;;7.30;2.30;;;;;;;20.04;60.26;99901.73;105096;1273;67039;-74
2022/07/04 09:09:42;;;;;;;6.00;2.20;;;;;;;20.04;60.31;99911.25;105054;1271;71684;-74
2022/07/04 09:12:38;;;;;;;7.60;2.40;;;;;;;20.03;60.92;99907.70;105079;1271;59670;-73
2022/07/04 09:15:49;;;;;;;7.60;2.30;;;;;;;20.02;60.42;99875.84;105156;1271;59567;-74
2022/07/04 09:18:40;;;;;;;5.70;2.10;;;;;;;19.98;60.66;99803.25;105006;1271;75188;-74
2022/07/04 09:21:46;;;;;;;10.50;2.30;;;;;;;19.98;60.96;99764.36;105049;1271;66472;-73
2022/07/04 09:24:53;;;;;;;7.80;2.00;;;;;;;20.00;60.30;99809.47;105269;1271;72806;-74
2022/07/04 09:27:54;;;;;;;6.70;2.00;;;;;;;19.97;60.72;99816.62;105202;1271;59707;-73
2022/07/04 09:30:50;;;;;;;5.70;1.70;;;;;;;20.00;60.53;99822.80;105040;1271;59882;-76
2022/07/04 09:33:52;;;;;;;6.80;1.90;;;;;;;20.09;60.45;99843.48;105284;1271;72686;-76
2022/07/04 09:36:44;;;;;;;6.30;2.30;;;;;;;20.20;61.23;99848.59;105373;1271;67802;-74
2022/07/04 09:39:37;;;;;;;8.70;2.30;;;;;;;20.35;61.49;99856.86;105256;1271;72947;-75
2022/07/04 09:42:25;;;;;;;10.00;3.30;;;;;;;20.50;61.12;99869.88;104759;1273;59704;-74
2022/07/04 09:45:13;;;;;;;5.60;1.80;;;;;;;20.63;61.38;99890.46;105124;1271;62026;-74
2022/07/04 09:48:01;;;;;;;5.70;1.90;;;;;;;20.65;61.61;99889.65;104977;1271;74531;-74
2022/07/04 09:50:50;;;;;;;7.30;2.00;;;;;;;20.65;61.16;99893.98;105190;1271;68144;-74
2022/07/04 09:53:38;;;;;;;6.50;2.10;;;;;;;20.68;60.89;99886.80;105022;1271;72929;-74
2022/07/04 09:56:45;;;;;;;6.50;1.90;;;;;;;20.76;59.92;99887.15;105015;1271;59794;-74
2022/07/04 09:59:34;;;;;;;5.20;1.70;;;;;;;20.90;59.62;99896.05;104806;1273;60845;-73
2022/07/04 10:02:23;;;;;;;6.40;1.80;;;;;;;21.13;59.21;99899.83;105059;1271;74727;-72
2022/07/04 10:05:11;;;;;;;6.00;1.80;;;;;;;21.45;57.05;99895.77;105372;1271;69083;-74
2022/07/04 10:07:59;;;;;;;6.20;2.00;;;;;;;21.86;55.70;99895.28;104994;1271;74425;-74
2022/07/04 10:10:47;;;;;;;5.80;1.70;;;;;;;22.26;54.24;99894.46;105119;1271;59747;-75
2022/07/04 10:13:37;;;;;;;5.40;1.80;;;;;;;22.95;52.31;99894.21;105147;1271;60599;-75
2022/07/04 10:16:24;;;;;;;6.00;1.80;;;;;;;24.46;48.71;99888.48;105094;1273;70964;-74
2022/07/04 10:19:13;;;;;;;5.70;1.60;;;;;;;25.83;46.01;99887.98;105192;1271;68154;-76
2022/07/04 10:22:01;;;;;;;6.50;1.70;;;;;;;27.35;41.08;99889.09;104984;1271;71570;-76
2022/07/04 10:24:50;;;;;;;5.50;1.40;;;;;;;28.17;39.04;99888.60;105194;1271;59550;-76
2022/07/04 10:27:39;;;;;;;5.50;1.40;;;;;;;28.59;37.86;99892.23;105126;1271;60253;-77
2022/07/04 10:30:36;;;;;;;5.10;1.30;;;;;;;28.32;37.51;99890.80;105201;1274;72134;-76
2022/07/04 10:33:29;;;;;;;4.70;1.40;;;;;;;28.14;38.43;99891.05;105371;1271;66821;-75
2022/07/04 10:36:20;;;;;;;5.00;1.30;;;;;;;28.62;37.67;99890.84;105064;1271;73220;-77
2022/07/04 10:39:08;;;;;;;5.80;1.50;;;;;;;28.50;36.83;99888.58;105018;1271;59804;-76
2022/07/04 10:41:59;;;;;;;6.00;1.40;;;;;;;29.53;35.76;99878.90;105434;1271;60272;-76
2022/07/04 10:44:49;;;;;;;4.90;1.30;;;;;;;30.44;33.16;99877.88;105303;1271;72320;-76
2022/07/04 10:47:39;;;;;;;5.90;1.40;;;;;;;31.12;31.04;99875.02;105072;1271;66743;-78
2022/07/04 10:50:30;;;;;;;5.20;1.40;;;;;;;32.18;30.65;99877.27;104950;1271;71491;-76
2022/07/04 10:53:18;;;;;;;7.20;1.30;;;;;;;33.11;28.62;99871.05;105007;1271;59617;-76
2022/07/04 10:56:18;;;;;;;6.30;1.50;;;;;;;34.31;26.71;99864.13;105189;1271;60408;-76
2022/07/04 10:59:23;;;;;;;5.10;1.40;;;;;;;35.13;25.81;99853.40;105255;1271;73645;-75
2022/07/04 11:02:11;;;;;;;5.60;1.30;;;;;;;35.29;24.99;99859.66;105419;1271;66479;-75
2022/07/04 11:05:18;;;;;;;7.00;1.70;;;;;;;35.38;24.98;99858.30;105194;1271;73116;-76
2022/07/04 11:08:06;;;;;;;4.80;1.10;;;;;;;35.18;25.02;99861.39;105039;1271;59779;-74
2022/07/04 11:11:05;;;;;;;5.10;1.30;;;;;;;33.88;26.58;99857.24;105190;1271;59813;-76
2022/07/04 11:14:43;;;;;;;4.80;1.10;;;;;;;32.72;28.38;99865.16;105336;1271;71687;-75
2022/07/04 11:17:37;;;;;;;11.40;2.10;;;;;;;31.33;30.10;99866.48;105117;1271;67113;-76
2022/07/04 11:20:34;;;;;;;5.10;1.30;;;;;;;30.65;31.19;99868.31;105076;1271;72893;-74
2022/07/04 11:23:24;;;;;;;5.20;1.30;;;;;;;30.66;31.79;99867.89;105041;1271;59869;-77
2022/07/04 11:26:13;;;;;;;4.90;1.30;;;;;;;30.70;31.08;99863.27;104930;1271;59628;-74
2022/07/04 11:29:01;;;;;;;6.00;1.30;;;;;;;30.74;31.24;99859.02;104999;1271;73711;-78
2022/07/04 11:31:52;;;;;;;6.20;1.30;;;;;;;30.49;31.35;99858.58;105155;1271;68891;-73
2022/07/04 11:34:40;;;;;;;5.10;1.60;;;;;;;30.45;32.19;99859.36;105246;1271;73910;-74
2022/07/04 11:37:28;;;;;;;6.10;1.70;;;;;;;30.53;32.55;99856.11;105180;1271;59974;-76
2022/07/04 11:46:37;;;;;;;7.70;3.30;;;;;;;29.60;31.94;99863.84;105213;1271;68452;-77
2022/07/04 11:49:25;;;;;;;4.90;1.20;;;;;;;29.07;31.95;99869.84;105050;1271;72892;-76
2022/07/04 11:52:15;;;;;;;5.50;1.60;;;;;;;28.44;33.31;99870.67;105137;1271;59714;-77
2022/07/04 11:55:10;;;;;;;6.30;2.40;;;;;;;28.22;35.08;99868.14;105054;1271;61098;-74
2022/07/04 11:57:58;;;;;;;4.50;1.10;;;;;;;28.09;35.40;99869.18;104876;1273;74038;-76
2022/07/04 12:00:47;;;;;;;5.60;1.60;;;;;;;27.94;35.16;99870.58;105256;1271;67997;-75
2022/07/04 12:03:38;;;;;;;5.10;1.30;;;;;;;27.71;35.86;99872.12;105095;1271;71563;-76
2022/07/04 12:06:26;;;;;;;5.90;1.90;;;;;;;27.40;36.70;99866.29;105165;1271;59698;-75
2022/07/04 12:09:18;;;;;;;4.80;1.40;;;;;;;27.29;37.87;99871.61;105011;1273;60497;-72
2022/07/04 12:12:07;;;;;;;5.30;1.60;;;;;;;27.19;37.42;99866.23;105218;1271;73754;-72
2022/07/04 12:15:07;;;;;;;6.10;1.50;;;;;;;27.13;37.63;99855.64;104836;1273;67918;-73
2022/07/04 12:17:55;;;;;;;5.00;1.40;;;;;;;27.02;38.40;99860.83;104972;1271;73341;-72
2022/07/04 12:20:44;;;;;;;4.90;1.50;;;;;;;26.72;38.76;99863.95;105392;1271;59679;-71
2022/07/04 12:23:32;;;;;;;5.30;1.60;;;;;;;26.72;39.29;99859.20;105038;1271;61125;-73
2022/07/04 12:26:20;;;;;;;5.40;1.40;;;;;;;26.87;39.02;99866.15;105016;1271;72977;-73
2022/07/04 12:29:09;;;;;;;5.10;1.50;;;;;;;27.01;39.05;99859.64;105195;1271;69760;-72
2022/07/04 12:31:57;;;;;;;5.10;1.60;;;;;;;27.11;39.08;99854.88;105457;1271;70556;-71
2022/07/04 12:34:46;;;;;;;6.00;1.60;;;;;;;27.06;38.42;99848.05;105085;1271;59653;-71
2022/07/04 12:37:35;;;;;;;6.20;1.80;;;;;;;26.98;38.56;99861.59;105029;1271;60233;-73
2022/07/04 12:40:23;;;;;;;5.40;1.80;;;;;;;26.92;37.80;99860.63;104845;1271;74810;-72
2022/07/04 12:43:12;;;;;;;5.50;1.70;;;;;;;26.95;38.65;99860.36;105222;1271;67899;-73
2022/07/04 12:45:59;;;;;;;5.30;1.80;;;;;;;26.84;39.35;99859.16;105044;1271;72811;-72
2022/07/04 12:48:49;;;;;;;6.00;1.80;;;;;;;26.91;39.81;99861.19;104848;1271;59836;-72
2022/07/04 12:51:37;;;;;;;5.90;1.50;;;;;;;26.97;40.01;99864.79;104849;1273;60562;-72
2022/07/04 12:54:26;;;;;;;6.40;2.00;;;;;;;27.10;39.65;99857.86;104913;1273;73552;-71
2022/07/04 12:57:16;;;;;;;5.80;1.80;;;;;;;27.20;39.56;99858.27;105048;1271;68147;-72
2022/07/04 13:00:05;;;;;;;5.80;1.90;;;;;;;27.32;40.65;99855.48;105029;1271;72846;-73
2022/07/04 13:03:13;;;;;;;6.80;1.70;;;;;;;27.44;40.06;99848.45;105057;1271;59785;-73
2022/07/04 13:06:02;;;;;;;6.90;1.80;;;;;;;27.53;40.85;99835.77;105116;1271;62034;-73
2022/07/04 13:08:50;;;;;;;6.30;1.70;;;;;;;27.54;40.56;99828.54;105105;1271;74773;-72
2022/07/04 13:14:45;;;;;;;7.30;1.90;;;;;;;27.62;40.26;99835.45;104992;1271;73105;-73
2022/07/04 13:17:33;;;;;;;7.80;1.90;;;;;;;27.67;39.59;99838.43;105237;1271;59827;-72
2022/07/04 13:20:22;;;;;;;5.30;1.80;;;;;;;27.72;39.54;99836.45;104958;1271;61117;-73
2022/07/04 13:23:11;;;;;;;6.00;1.60;;;;;;;27.73;39.11;99841.77;104983;1271;74713;-72
2022/07/04 13:26:07;;;;;;;6.30;1.60;;;;;;;27.59;38.68;99842.59;105053;1271;66902;-72
2022/07/04 13:28:57;;;;;;;5.80;1.70;;;;;;;27.32;39.53;99841.52;105086;1271;74344;-72
2022/07/04 13:31:46;;;;;;;5.00;1.60;;;;;;;27.18;39.70;99841.07;104986;1271;59691;-73
2022/07/04 13:34:36;;;;;;;8.10;1.70;;;;;;;26.77;40.48;99836.24;105117;1269;60239;-72